Time;durP1;ratioP1;P1;durP2;ratioP2;P2;SDS_P1;SDS_P2;PMS_P1;PMS_P2;Temp;Humidity;BMP_temperature;BMP_pressure;BME280_temperature;BME280_humidity;BME280_pressure;Samples;Min_cycle;Max_cycle;Signal;HPM_P1;HPM_P2
2022/01/20 00:03:31;;;;;;;13.38;11.07;;;;;;;;;;5059630;28;20720;-41
2022/01/20 00:27:25;;;;;;;19.08;12.93;;;;;;;;;;5054186;28;20039;-41
2022/01/20 00:37:40;;;;;;;23.95;13.68;;;;;;;;;;5055235;28;20078;-45
2022/01/20 00:40:06;;;;;;;22.35;15.68;;;;;;;;;;5052557;28;20028;-43
2022/01/20 00:42:31;;;;;;;26.00;19.20;;;;;;;;;;5059416;28;20055;-42
2022/01/20 00:44:56;;;;;;;35.42;20.73;;;;;;;;;;5062860;28;20638;-44
2022/01/20 00:47:22;;;;;;;27.95;19.73;;;;;;;;;;5054870;28;20030;-42
2022/01/20 00:49:47;;;;;;;30.38;22.83;;;;;;;;;;5057014;28;20666;-44
2022/01/20 00:52:13;;;;;;;23.48;17.92;;;;;;;;;;5054384;28;20035;-44
2022/01/20 00:54:38;;;;;;;29.45;20.27;;;;;;;;;;5056203;28;20441;-44
2022/01/20 00:57:04;;;;;;;33.78;21.70;;;;;;;;;;5053188;28;20017;-44
2022/01/20 00:59:30;;;;;;;29.15;20.42;;;;;;;;;;5055162;28;20363;-42
2022/01/20 01:01:56;;;;;;;33.95;28.00;;;;;;;;;;5053661;28;20029;-42
2022/01/20 01:04:21;;;;;;;24.95;20.13;;;;;;;;;;5058953;28;20027;-43
2022/01/20 01:07:15;;;;;;;20.60;16.48;;;;;;;;;;5053266;28;20028;-42
2022/01/20 01:09:32;;;;;;;20.83;14.27;;;;;;;;;;5055541;28;20497;-42
2022/01/20 01:12:02;;;;;;;13.60;11.70;;;;;;;;;;5054385;28;20075;-42
2022/01/20 01:14:30;;;;;;;17.65;11.98;;;;;;;;;;5051731;28;20021;-41
2022/01/20 01:24:43;;;;;;;20.55;12.00;;;;;;;;;;5052829;28;20094;-44
2022/01/20 01:27:10;;;;;;;16.60;14.38;;;;;;;;;;5057163;28;20021;-48
2022/01/20 01:32:23;;;;;;;27.58;23.48;;;;;;;;;;5057565;28;20055;-39
2022/01/20 01:34:51;;;;;;;31.50;27.98;;;;;;;;;;5058205;28;20013;-40
2022/01/20 01:39:58;;;;;;;43.47;30.13;;;;;;;;;;5049805;28;20110;-42
2022/01/20 01:42:30;;;;;;;43.58;29.83;;;;;;;;;;5050919;28;20335;-43
2022/01/20 01:44:57;;;;;;;37.22;32.83;;;;;;;;;;5055855;28;20029;-46
2022/01/20 01:47:22;;;;;;;34.50;30.85;;;;;;;;;;5051549;28;20013;-40
2022/01/20 01:49:48;;;;;;;38.53;24.02;;;;;;;;;;5057026;28;20561;-40
2022/01/20 01:52:13;;;;;;;52.05;43.13;;;;;;;;;;5054167;28;20682;-41
2022/01/20 01:54:38;;;;;;;38.35;27.20;;;;;;;;;;5054183;28;20018;-40
2022/01/20 01:57:07;;;;;;;36.60;25.92;;;;;;;;;;5053473;28;20055;-41
2022/01/20 01:59:32;;;;;;;24.25;21.67;;;;;;;;;;5053110;28;20107;-41
2022/01/20 02:01:58;;;;;;;43.45;27.17;;;;;;;;;;5053779;28;20115;-40
2022/01/20 02:04:23;;;;;;;29.75;26.92;;;;;;;;;;5054112;28;20486;-42
2022/01/20 02:07:18;;;;;;;27.98;24.75;;;;;;;;;;5053064;28;20024;-45
2022/01/20 02:17:49;;;;;;;42.95;36.80;;;;;;;;;;5059059;28;20349;-43
2022/01/20 02:20:22;;;;;;;21.25;17.15;;;;;;;;;;5061716;28;20090;-40
2022/01/20 02:22:48;;;;;;;18.42;14.63;;;;;;;;;;5060512;28;20546;-42
2022/01/20 02:25:27;;;;;;;19.35;14.15;;;;;;;;;;5064119;28;20020;-41
2022/01/20 02:27:53;;;;;;;20.30;17.52;;;;;;;;;;5061147;28;20101;-45
2022/01/20 02:30:19;;;;;;;17.20;15.43;;;;;;;;;;5056838;28;20091;-42
2022/01/20 02:32:55;;;;;;;13.93;12.23;;;;;;;;;;5058639;28;20021;-40
2022/01/20 02:35:21;;;;;;;20.95;18.75;;;;;;;;;;5057462;28;20079;-42
2022/01/20 02:37:49;;;;;;;21.45;12.82;;;;;;;;;;5057031;28;20107;-42
2022/01/20 02:45:23;;;;;;;17.52;10.60;;;;;;;;;;5054416;28;20101;-40
2022/01/20 02:47:50;;;;;;;28.02;14.05;;;;;;;;;;5059364;28;20038;-41
2022/01/20 02:50:15;;;;;;;27.92;16.65;;;;;;;;;;5054435;28;20052;-45
2022/01/20 02:52:41;;;;;;;20.08;15.30;;;;;;;;;;5056941;28;20060;-42
2022/01/20 02:55:06;;;;;;;19.70;13.07;;;;;;;;;;5057966;28;20131;-42
2022/01/20 02:57:32;;;;;;;22.35;12.95;;;;;;;;;;5057445;28;20021;-43
2022/01/20 02:59:57;;;;;;;18.23;13.50;;;;;;;;;;5057852;28;20031;-41
2022/01/20 03:02:22;;;;;;;21.45;15.02;;;;;;;;;;5055919;28;20410;-46
2022/01/20 03:04:49;;;;;;;20.17;16.88;;;;;;;;;;5054918;28;20029;-40
2022/01/20 03:07:15;;;;;;;17.42;15.57;;;;;;;;;;5059616;28;20054;-43
2022/01/20 03:09:40;;;;;;;17.50;12.93;;;;;;;;;;5059780;28;20032;-46
2022/01/20 03:12:05;;;;;;;13.63;12.30;;;;;;;;;;5061694;28;20037;-42
2022/01/20 03:14:31;;;;;;;18.05;13.25;;;;;;;;;;5055876;28;20672;-41
2022/01/20 03:16:57;;;;;;;23.52;17.42;;;;;;;;;;5054353;28;20013;-42
2022/01/20 03:19:22;;;;;;;18.42;13.30;;;;;;;;;;5055451;28;20024;-41
2022/01/20 03:21:48;;;;;;;17.15;12.88;;;;;;;;;;5054940;28;20028;-41
2022/01/20 03:24:13;;;;;;;23.77;16.13;;;;;;;;;;5058441;28;20013;-42
2022/01/20 03:26:38;;;;;;;27.50;14.95;;;;;;;;;;5058375;28;20024;-43
2022/01/20 03:29:05;;;;;;;12.15;8.32;;;;;;;;;;5057435;28;20028;-43
2022/01/20 03:31:31;;;;;;;14.88;6.22;;;;;;;;;;5056811;28;20036;-40
2022/01/20 03:33:56;;;;;;;6.85;5.35;;;;;;;;;;5054479;28;20017;-45
2022/01/20 03:36:21;;;;;;;6.97;5.85;;;;;;;;;;5054585;28;20079;-43
2022/01/20 03:38:47;;;;;;;7.22;5.47;;;;;;;;;;5054642;28;20358;-43
2022/01/20 03:41:12;;;;;;;10.82;5.85;;;;;;;;;;5058294;28;20013;-46
2022/01/20 03:43:37;;;;;;;9.25;6.30;;;;;;;;;;5053753;28;20028;-43
2022/01/20 03:46:06;;;;;;;9.18;6.18;;;;;;;;;;5055152;28;20024;-41
2022/01/20 03:48:38;;;;;;;11.02;5.57;;;;;;;;;;5059721;28;20029;-41
2022/01/20 03:51:03;;;;;;;7.15;5.43;;;;;;;;;;5056149;28;20031;-40
2022/01/20 03:53:30;;;;;;;7.72;6.38;;;;;;;;;;5057345;28;20028;-41
2022/01/20 03:55:55;;;;;;;9.80;6.43;;;;;;;;;;5056805;28;20072;-42
2022/01/20 03:58:21;;;;;;;11.23;6.47;;;;;;;;;;5055995;28;20064;-40
2022/01/20 04:00:46;;;;;;;7.93;5.68;;;;;;;;;;5054645;28;20040;-41
2022/01/20 04:03:12;;;;;;;7.22;6.30;;;;;;;;;;5054044;28;20478;-40
2022/01/20 04:05:56;;;;;;;6.25;5.38;;;;;;;;;;5053999;28;20085;-39
2022/01/20 04:08:51;;;;;;;12.73;8.77;;;;;;;;;;5056293;28;20033;-44
2022/01/20 04:11:18;;;;;;;15.30;13.68;;;;;;;;;;5044956;28;20025;-40
2022/01/20 04:13:43;;;;;;;18.02;12.75;;;;;;;;;;5061275;28;20029;-41
2022/01/20 04:16:16;;;;;;;21.25;11.98;;;;;;;;;;5059841;28;20119;-41
2022/01/20 04:18:51;;;;;;;24.58;12.52;;;;;;;;;;5057116;28;20142;-40
2022/01/20 04:21:16;;;;;;;17.05;13.50;;;;;;;;;;5056110;28;20043;-45
2022/01/20 04:23:42;;;;;;;13.27;11.98;;;;;;;;;;5056558;28;20092;-43
2022/01/20 04:26:07;;;;;;;15.88;14.35;;;;;;;;;;5056742;28;20024;-41
2022/01/20 04:28:32;;;;;;;20.27;14.05;;;;;;;;;;5052470;28;20095;-40
2022/01/20 04:30:58;;;;;;;17.73;13.68;;;;;;;;;;5058612;28;20020;-42
2022/01/20 04:33:23;;;;;;;16.38;11.32;;;;;;;;;;5056805;28;20112;-42
2022/01/20 04:35:48;;;;;;;14.80;12.48;;;;;;;;;;5053511;28;20016;-41
2022/01/20 04:38:13;;;;;;;15.52;10.02;;;;;;;;;;5055252;28;20794;-44
2022/01/20 04:40:41;;;;;;;12.43;10.70;;;;;;;;;;5055866;28;20050;-42
2022/01/20 04:43:07;;;;;;;14.30;11.32;;;;;;;;;;5057802;28;20021;-42
2022/01/20 04:45:38;;;;;;;14.45;11.82;;;;;;;;;;5054461;28;20039;-40
2022/01/20 04:58:49;;;;;;;18.65;12.80;;;;;;;;;;5053050;28;20108;-42
2022/01/20 05:01:15;;;;;;;13.18;9.35;;;;;;;;;;5054438;28;20107;-40
2022/01/20 05:03:42;;;;;;;13.05;9.63;;;;;;;;;;5054112;28;20714;-41
2022/01/20 05:06:07;;;;;;;12.75;9.05;;;;;;;;;;5053755;28;20020;-40
2022/01/20 05:08:32;;;;;;;8.18;5.72;;;;;;;;;;5055440;28;20020;-40
2022/01/20 05:11:01;;;;;;;7.13;6.22;;;;;;;;;;5057108;28;20497;-41
2022/01/20 05:13:33;;;;;;;13.27;8.15;;;;;;;;;;5055502;28;20032;-43
2022/01/20 05:15:59;;;;;;;9.23;6.43;;;;;;;;;;5053792;28;20122;-43
2022/01/20 05:18:24;;;;;;;11.75;7.85;;;;;;;;;;5054074;28;20036;-44
2022/01/20 05:20:49;;;;;;;11.65;8.18;;;;;;;;;;5053989;28;20046;-45
2022/01/20 05:23:15;;;;;;;14.70;10.15;;;;;;;;;;5058691;28;20544;-43
2022/01/20 05:25:40;;;;;;;20.00;13.32;;;;;;;;;;5053262;28;20052;-45
2022/01/20 05:28:05;;;;;;;12.45;11.15;;;;;;;;;;5048326;28;20111;-40
2022/01/20 05:30:31;;;;;;;13.95;10.45;;;;;;;;;;5054850;28;20028;-40
2022/01/20 05:32:56;;;;;;;12.93;8.60;;;;;;;;;;5051995;28;20706;-42
2022/01/20 05:35:22;;;;;;;12.48;7.38;;;;;;;;;;5052758;28;20044;-41
2022/01/20 05:37:47;;;;;;;17.90;9.52;;;;;;;;;;5056054;28;20043;-40
2022/01/20 05:40:12;;;;;;;13.60;8.32;;;;;;;;;;5052121;28;20393;-40
2022/01/20 05:42:39;;;;;;;11.75;9.02;;;;;;;;;;5053002;28;20029;-40
2022/01/20 05:45:05;;;;;;;15.35;9.85;;;;;;;;;;5060280;28;20424;-41
2022/01/20 05:47:32;;;;;;;13.73;12.18;;;;;;;;;;5060811;28;20040;-40
2022/01/20 05:49:57;;;;;;;16.60;14.18;;;;;;;;;;5061408;28;20667;-40
2022/01/20 05:52:23;;;;;;;24.48;17.23;;;;;;;;;;5059248;28;20029;-45
2022/01/20 05:54:49;;;;;;;23.98;13.10;;;;;;;;;;5058111;28;20013;-42
2022/01/20 05:57:14;;;;;;;11.88;10.52;;;;;;;;;;5057825;28;20031;-44
2022/01/20 05:59:39;;;;;;;17.80;12.55;;;;;;;;;;5056462;28;20036;-42
2022/01/20 06:02:28;;;;;;;9.93;8.52;;;;;;;;;;5060620;28;20020;-41
2022/01/20 06:04:53;;;;;;;10.98;8.50;;;;;;;;;;5058241;28;20520;-41
2022/01/20 06:07:20;;;;;;;8.23;6.97;;;;;;;;;;5057750;28;20040;-41
2022/01/20 06:09:45;;;;;;;13.65;9.45;;;;;;;;;;5056828;28;20036;-41
2022/01/20 06:12:10;;;;;;;16.65;9.52;;;;;;;;;;5056909;28;20021;-43
2022/01/20 06:14:36;;;;;;;12.75;7.68;;;;;;;;;;5054342;28;20823;-42
2022/01/20 06:17:02;;;;;;;16.52;10.25;;;;;;;;;;5055243;28;20627;-40
2022/01/20 06:19:27;;;;;;;8.68;7.90;;;;;;;;;;5055451;28;20017;-43
2022/01/20 06:21:52;;;;;;;14.13;8.25;;;;;;;;;;5054361;28;20489;-40
2022/01/20 06:24:18;;;;;;;14.30;10.18;;;;;;;;;;5055409;28;20424;-43
2022/01/20 06:26:43;;;;;;;11.27;8.93;;;;;;;;;;5058818;28;20064;-43
2022/01/20 06:29:08;;;;;;;12.07;8.23;;;;;;;;;;5058391;28;20125;-45
2022/01/20 06:31:34;;;;;;;19.60;10.98;;;;;;;;;;5055335;28;20488;-45
2022/01/20 06:33:59;;;;;;;13.35;8.23;;;;;;;;;;5053151;28;20694;-45
2022/01/20 06:36:24;;;;;;;9.93;8.75;;;;;;;;;;5059310;28;20032;-49
2022/01/20 06:38:50;;;;;;;19.92;11.52;;;;;;;;;;5055852;28;20039;-51
2022/01/20 06:41:15;;;;;;;17.17;11.13;;;;;;;;;;5056144;28;20397;-49
2022/01/20 06:43:40;;;;;;;15.80;11.93;;;;;;;;;;5050714;28;20029;-48
2022/01/20 06:46:06;;;;;;;14.70;10.75;;;;;;;;;;5052622;28;20536;-49
2022/01/20 06:48:31;;;;;;;16.50;11.65;;;;;;;;;;5056234;28;20071;-48
2022/01/20 06:50:56;;;;;;;17.33;15.07;;;;;;;;;;5054894;28;20072;-46
2022/01/20 06:53:21;;;;;;;27.92;15.23;;;;;;;;;;5050914;28;20021;-47
2022/01/20 06:55:47;;;;;;;23.52;19.52;;;;;;;;;;5057624;28;20125;-47
2022/01/20 06:58:12;;;;;;;35.65;24.08;;;;;;;;;;5051549;28;20051;-48
2022/01/20 07:00:37;;;;;;;34.55;18.17;;;;;;;;;;5050036;28;20020;-46
2022/01/20 07:03:03;;;;;;;23.52;16.10;;;;;;;;;;5049335;28;20061;-49
2022/01/20 07:05:28;;;;;;;23.52;15.43;;;;;;;;;;5052554;28;20021;-45
2022/01/20 07:07:53;;;;;;;27.88;18.25;;;;;;;;;;5051283;28;20028;-48
2022/01/20 07:10:19;;;;;;;30.90;19.30;;;;;;;;;;5054452;28;20029;-48
2022/01/20 07:12:46;;;;;;;37.42;27.88;;;;;;;;;;5054128;28;20047;-46
2022/01/20 07:15:11;;;;;;;34.08;26.52;;;;;;;;;;5056351;28;20017;-50
2022/01/20 07:17:37;;;;;;;43.28;26.92;;;;;;;;;;5055127;28;20024;-50
2022/01/20 07:20:02;;;;;;;36.97;26.85;;;;;;;;;;5052530;28;20021;-48
2022/01/20 07:22:28;;;;;;;39.15;32.70;;;;;;;;;;5052543;28;20025;-51
2022/01/20 07:24:53;;;;;;;45.58;37.78;;;;;;;;;;5053119;28;20477;-50
2022/01/20 07:27:18;;;;;;;41.40;34.92;;;;;;;;;;5057148;28;20032;-48
2022/01/20 07:29:44;;;;;;;43.45;35.15;;;;;;;;;;5053072;28;20078;-47
2022/01/20 07:32:09;;;;;;;27.60;21.20;;;;;;;;;;5058051;28;20009;-39
2022/01/20 07:34:35;;;;;;;30.35;24.70;;;;;;;;;;5054462;28;20405;-41
2022/01/20 07:37:01;;;;;;;31.13;25.58;;;;;;;;;;5059082;28;20131;-42
2022/01/20 07:39:26;;;;;;;54.58;23.15;;;;;;;;;;5055545;28;20485;-41
2022/01/20 07:41:51;;;;;;;29.30;21.27;;;;;;;;;;5055545;28;20024;-42
2022/01/20 07:44:17;;;;;;;28.25;21.52;;;;;;;;;;5055111;28;20021;-42
2022/01/20 07:46:46;;;;;;;39.25;22.73;;;;;;;;;;5053628;28;20495;-41
2022/01/20 07:49:11;;;;;;;28.83;19.60;;;;;;;;;;5052574;28;20025;-41
2022/01/20 07:51:36;;;;;;;34.55;20.85;;;;;;;;;;5049619;28;20087;-42
2022/01/20 07:54:02;;;;;;;21.05;15.90;;;;;;;;;;5052631;28;20075;-40
2022/01/20 07:56:27;;;;;;;28.08;19.05;;;;;;;;;;5053044;28;20493;-44
2022/01/20 07:58:52;;;;;;;29.15;21.52;;;;;;;;;;5054061;28;20024;-40
2022/01/20 08:01:18;;;;;;;30.58;21.67;;;;;;;;;;5055144;28;20111;-40
2022/01/20 08:03:43;;;;;;;37.40;23.00;;;;;;;;;;5054002;28;20024;-41
2022/01/20 08:06:08;;;;;;;35.67;21.60;;;;;;;;;;5050761;28;20504;-40
2022/01/20 08:08:34;;;;;;;30.27;23.23;;;;;;;;;;5054506;28;20116;-39
2022/01/20 08:10:59;;;;;;;32.85;23.27;;;;;;;;;;5047516;28;20013;-40
2022/01/20 08:13:24;;;;;;;34.63;21.52;;;;;;;;;;5052889;28;20029;-42
2022/01/20 08:15:50;;;;;;;25.13;22.50;;;;;;;;;;5049498;28;20044;-37
2022/01/20 08:18:15;;;;;;;30.27;27.23;;;;;;;;;;5050951;28;20028;-40
2022/01/20 08:20:40;;;;;;;35.20;29.58;;;;;;;;;;5053607;28;20035;-38
2022/01/20 08:23:06;;;;;;;35.28;28.17;;;;;;;;;;5050034;28;20179;-37
2022/01/20 08:25:31;;;;;;;38.50;28.38;;;;;;;;;;5054505;28;20083;-38
2022/01/20 08:27:57;;;;;;;32.33;29.27;;;;;;;;;;5054367;28;20385;-37
2022/01/20 08:30:23;;;;;;;54.53;33.67;;;;;;;;;;5052594;28;20046;-39
2022/01/20 08:32:48;;;;;;;64.75;46.70;;;;;;;;;;5053983;28;20099;-36
2022/01/20 08:35:14;;;;;;;53.13;43.60;;;;;;;;;;5056032;28;20685;-37
2022/01/20 08:37:43;;;;;;;56.67;39.22;;;;;;;;;;5055569;28;20129;-36
2022/01/20 08:40:10;;;;;;;67.32;48.70;;;;;;;;;;5052846;28;20033;-37
2022/01/20 08:42:35;;;;;;;52.80;41.10;;;;;;;;;;5057131;28;20040;-37
2022/01/20 08:45:01;;;;;;;55.10;38.47;;;;;;;;;;5051934;28;20043;-37
2022/01/20 08:47:26;;;;;;;209.07;124.93;;;;;;;;;;5053810;28;20470;-36
2022/01/20 08:49:52;;;;;;;118.07;76.72;;;;;;;;;;5052657;28;20044;-36
2022/01/20 08:52:17;;;;;;;46.90;39.60;;;;;;;;;;5050696;28;20119;-36
2022/01/20 08:54:45;;;;;;;44.38;34.70;;;;;;;;;;5053175;28;20033;-37
2022/01/20 08:57:11;;;;;;;52.15;36.05;;;;;;;;;;5052074;28;20145;-38
2022/01/20 08:59:40;;;;;;;44.20;36.70;;;;;;;;;;5052794;28;20551;-37
2022/01/20 09:02:06;;;;;;;49.95;36.17;;;;;;;;;;5053152;28;20028;-38
2022/01/20 09:04:32;;;;;;;43.17;36.38;;;;;;;;;;5054247;28;20103;-38
2022/01/20 09:06:57;;;;;;;55.83;33.75;;;;;;;;;;5053755;28;20089;-39
2022/01/20 09:09:22;;;;;;;47.47;36.20;;;;;;;;;;5055912;28;20025;-37
2022/01/20 09:17:20;;;;;;;56.67;42.55;;;;;;;;;;5051161;28;20035;-36
2022/01/20 09:19:45;;;;;;;66.82;47.20;;;;;;;;;;5054737;28;20481;-38
2022/01/20 09:22:12;;;;;;;54.72;44.03;;;;;;;;;;5054512;28;20608;-38
2022/01/20 09:24:37;;;;;;;66.00;48.10;;;;;;;;;;5053715;28;20040;-39
2022/01/20 09:27:02;;;;;;;73.05;52.88;;;;;;;;;;5051259;28;20017;-37
2022/01/20 09:29:28;;;;;;;66.72;45.72;;;;;;;;;;5050642;28;20772;-38
2022/01/20 09:31:53;;;;;;;72.40;42.28;;;;;;;;;;5048751;28;20423;-40
2022/01/20 09:34:19;;;;;;;45.40;34.90;;;;;;;;;;5053310;28;20027;-37
2022/01/20 09:36:45;;;;;;;120.80;73.32;;;;;;;;;;5048351;28;20021;-37
2022/01/20 09:39:10;;;;;;;92.13;63.17;;;;;;;;;;5049271;28;20549;-37
2022/01/20 09:41:36;;;;;;;55.03;35.72;;;;;;;;;;5048088;28;20140;-38
2022/01/20 09:44:03;;;;;;;26.83;18.60;;;;;;;;;;5048892;28;20033;-38
2022/01/20 09:46:29;;;;;;;23.38;16.98;;;;;;;;;;5052918;28;20470;-39
2022/01/20 09:48:54;;;;;;;26.52;23.98;;;;;;;;;;5051311;28;20035;-41
2022/01/20 09:51:19;;;;;;;18.27;16.42;;;;;;;;;;5048170;28;20020;-38
2022/01/20 09:53:44;;;;;;;13.00;10.20;;;;;;;;;;5051889;28;20106;-40
2022/01/20 09:56:12;;;;;;;8.90;7.15;;;;;;;;;;5047165;28;20073;-40
2022/01/20 09:58:37;;;;;;;14.52;6.05;;;;;;;;;;5049530;28;20037;-38
2022/01/20 10:01:03;;;;;;;11.95;9.45;;;;;;;;;;5049961;28;20690;-39
2022/01/20 10:03:29;;;;;;;13.65;10.40;;;;;;;;;;5052885;28;20021;-38
2022/01/20 10:05:54;;;;;;;16.38;14.77;;;;;;;;;;5050335;28;20054;-37
2022/01/20 10:08:21;;;;;;;17.30;15.50;;;;;;;;;;5046591;28;20025;-38
2022/01/20 10:10:47;;;;;;;14.48;10.20;;;;;;;;;;5049395;28;20021;-39
2022/01/20 10:13:12;;;;;;;15.73;9.98;;;;;;;;;;5051190;28;20012;-39
2022/01/20 10:15:38;;;;;;;16.27;14.55;;;;;;;;;;5050582;28;20127;-39
2022/01/20 10:18:04;;;;;;;21.83;17.35;;;;;;;;;;5051011;28;20482;-39
2022/01/20 10:20:30;;;;;;;13.32;12.00;;;;;;;;;;5051255;28;20043;-42
2022/01/20 10:22:56;;;;;;;13.73;11.38;;;;;;;;;;5051415;28;20028;-37
2022/01/20 10:25:24;;;;;;;17.95;10.98;;;;;;;;;;5049832;28;20064;-40
2022/01/20 10:27:54;;;;;;;9.20;6.70;;;;;;;;;;5048206;28;20036;-38
2022/01/20 10:30:21;;;;;;;6.28;5.70;;;;;;;;;;5047206;28;20028;-38
2022/01/20 10:32:47;;;;;;;18.33;11.63;;;;;;;;;;5051692;28;20107;-41
2022/01/20 10:35:14;;;;;;;13.45;9.52;;;;;;;;;;5056031;28;20493;-39
2022/01/20 10:37:40;;;;;;;14.52;10.85;;;;;;;;;;5049138;28;20017;-44
2022/01/20 10:40:10;;;;;;;8.30;5.63;;;;;;;;;;5048521;28;20028;-38
2022/01/20 10:42:43;;;;;;;14.07;9.02;;;;;;;;;;5052307;28;20614;-40
2022/01/20 10:45:17;;;;;;;7.40;6.70;;;;;;;;;;5053401;28;20021;-40
2022/01/20 10:47:46;;;;;;;9.25;7.13;;;;;;;;;;5051816;28;20066;-40
2022/01/20 10:50:13;;;;;;;6.40;4.90;;;;;;;;;;5051729;28;20057;-40
2022/01/20 10:52:41;;;;;;;7.72;5.95;;;;;;;;;;5050877;28;20139;-43
2022/01/20 10:55:17;;;;;;;15.63;6.82;;;;;;;;;;5054613;28;20057;-38
2022/01/20 10:57:42;;;;;;;8.38;5.40;;;;;;;;;;5054679;28;20079;-38
2022/01/20 11:00:09;;;;;;;8.05;7.25;;;;;;;;;;5051234;28;20025;-41
2022/01/20 11:02:34;;;;;;;6.63;4.88;;;;;;;;;;5054002;28;20021;-39
2022/01/20 11:05:00;;;;;;;5.43;4.80;;;;;;;;;;5052314;28;20031;-39
2022/01/20 11:07:25;;;;;;;11.80;5.05;;;;;;;;;;5054577;28;20033;-40
2022/01/20 11:09:59;;;;;;;9.80;6.47;;;;;;;;;;5054402;28;20159;-38
2022/01/20 11:12:24;;;;;;;9.13;5.53;;;;;;;;;;5052783;28;20099;-39
2022/01/20 11:14:51;;;;;;;10.30;6.07;;;;;;;;;;5055169;28;20121;-38
2022/01/20 11:17:20;;;;;;;21.25;14.30;;;;;;;;;;5055007;28;20025;-39
2022/01/20 11:19:46;;;;;;;15.80;10.00;;;;;;;;;;5057498;28;20043;-40
2022/01/20 11:22:13;;;;;;;9.05;6.90;;;;;;;;;;5055085;28;20233;-39
2022/01/20 11:24:38;;;;;;;12.95;5.80;;;;;;;;;;5057822;28;20282;-38
2022/01/20 11:27:05;;;;;;;6.95;6.22;;;;;;;;;;5053579;28;20516;-43
2022/01/20 11:29:38;;;;;;;27.08;7.30;;;;;;;;;;5053674;28;20028;-38
2022/01/20 11:32:14;;;;;;;22.13;9.52;;;;;;;;;;5051284;28;20044;-39
2022/01/20 11:34:40;;;;;;;8.25;6.50;;;;;;;;;;5055090;28;20021;-39
2022/01/20 11:37:08;;;;;;;11.50;8.85;;;;;;;;;;5054426;28;20760;-38
2022/01/20 11:39:34;;;;;;;12.35;8.65;;;;;;;;;;5054746;28;20043;-41
2022/01/20 11:42:00;;;;;;;8.68;7.40;;;;;;;;;;5052904;28;20032;-41
2022/01/20 11:44:29;;;;;;;9.90;7.13;;;;;;;;;;5053919;28;20169;-38
2022/01/20 11:47:03;;;;;;;7.15;6.22;;;;;;;;;;5051434;28;20016;-38
2022/01/20 11:49:33;;;;;;;9.88;6.72;;;;;;;;;;5053370;28;20031;-39
2022/01/20 11:51:59;;;;;;;8.00;7.20;;;;;;;;;;5050805;28;20174;-40
2022/01/20 11:54:27;;;;;;;9.55;5.80;;;;;;;;;;5054707;28;20708;-39
2022/01/20 11:57:04;;;;;;;8.27;6.97;;;;;;;;;;5052711;28;20589;-39
2022/01/20 11:59:35;;;;;;;9.65;8.18;;;;;;;;;;5051799;28;20060;-40
2022/01/20 12:02:00;;;;;;;9.15;7.05;;;;;;;;;;5053286;28;20024;-38
2022/01/20 12:04:32;;;;;;;12.90;6.82;;;;;;;;;;5055753;28;20029;-40
2022/01/20 12:06:58;;;;;;;8.85;6.55;;;;;;;;;;5052455;28;20025;-41
2022/01/20 12:09:30;;;;;;;5.30;4.47;;;;;;;;;;5055457;28;20031;-43
2022/01/20 12:11:56;;;;;;;8.68;6.78;;;;;;;;;;5054250;28;20017;-39
2022/01/20 12:14:32;;;;;;;10.52;7.28;;;;;;;;;;5052643;28;20397;-41
2022/01/20 12:17:17;;;;;;;9.25;7.10;;;;;;;;;;5055814;28;20408;-38
2022/01/20 12:19:46;;;;;;;11.20;8.18;;;;;;;;;;5051529;28;20150;-41
2022/01/20 12:22:12;;;;;;;19.77;15.30;;;;;;;;;;5053124;28;20062;-42
2022/01/20 12:24:37;;;;;;;11.05;8.55;;;;;;;;;;5053652;28;20484;-43
2022/01/20 12:27:23;;;;;;;11.45;10.25;;;;;;;;;;5052612;28;20025;-41
2022/01/20 12:29:48;;;;;;;7.53;6.20;;;;;;;;;;5055558;28;20712;-40
2022/01/20 12:32:20;;;;;;;7.03;6.32;;;;;;;;;;5056678;28;20055;-38
2022/01/20 12:35:02;;;;;;;10.95;6.13;;;;;;;;;;5051290;28;20058;-38
2022/01/20 12:37:31;;;;;;;20.25;8.57;;;;;;;;;;5056042;28;20016;-40
2022/01/20 12:39:57;;;;;;;12.50;9.50;;;;;;;;;;5055538;28;20056;-39
2022/01/20 12:42:22;;;;;;;12.20;9.65;;;;;;;;;;5056251;28;20024;-40
2022/01/20 12:45:03;;;;;;;15.98;10.40;;;;;;;;;;5056171;28;20546;-40
2022/01/20 12:47:29;;;;;;;21.10;18.42;;;;;;;;;;5052133;28;20094;-41
2022/01/20 12:49:55;;;;;;;21.88;19.58;;;;;;;;;;5058524;28;20477;-42
2022/01/20 12:52:21;;;;;;;24.85;18.10;;;;;;;;;;5052794;28;20017;-40
2022/01/20 12:54:48;;;;;;;15.60;13.00;;;;;;;;;;5052427;28;20023;-40
2022/01/20 12:57:13;;;;;;;11.27;9.98;;;;;;;;;;5055152;28;20020;-44
2022/01/20 12:59:41;;;;;;;13.10;11.57;;;;;;;;;;5054608;28;20027;-42
2022/01/20 13:02:07;;;;;;;12.02;8.35;;;;;;;;;;5051627;28;20028;-40
2022/01/20 13:04:34;;;;;;;15.63;13.55;;;;;;;;;;5052978;28;20036;-43
2022/01/20 13:07:02;;;;;;;13.25;11.93;;;;;;;;;;5055547;28;20025;-41
2022/01/20 13:09:49;;;;;;;13.00;11.70;;;;;;;;;;5052682;28;20040;-38
2022/01/20 13:12:16;;;;;;;15.43;9.93;;;;;;;;;;5048687;28;20104;-40
2022/01/20 13:14:46;;;;;;;18.42;14.15;;;;;;;;;;5050283;28;20453;-46
2022/01/20 13:17:12;;;;;;;11.02;9.23;;;;;;;;;;5054439;28;20079;-39
2022/01/20 13:19:46;;;;;;;14.10;10.07;;;;;;;;;;5051914;28;20052;-40
2022/01/20 13:22:19;;;;;;;11.77;9.98;;;;;;;;;;5055072;28;20580;-41
2022/01/20 13:24:44;;;;;;;11.40;10.25;;;;;;;;;;5056261;28;20769;-42
2022/01/20 13:27:11;;;;;;;19.40;13.55;;;;;;;;;;5050222;28;20021;-39
2022/01/20 13:29:41;;;;;;;15.13;13.70;;;;;;;;;;5051833;28;20059;-40
2022/01/20 13:32:07;;;;;;;15.18;12.43;;;;;;;;;;5050296;28;20040;-40
2022/01/20 13:34:32;;;;;;;10.73;9.70;;;;;;;;;;5052016;28;20029;-40
2022/01/20 13:36:57;;;;;;;11.13;9.00;;;;;;;;;;5053676;28;20012;-38
2022/01/20 13:39:28;;;;;;;12.38;9.88;;;;;;;;;;5055283;28;20056;-40
2022/01/20 13:42:03;;;;;;;13.18;9.68;;;;;;;;;;5052006;28;20064;-38
2022/01/20 13:47:12;;;;;;;9.77;8.80;;;;;;;;;;5050005;28;20497;-38
2022/01/20 13:49:48;;;;;;;12.65;11.13;;;;;;;;;;5048889;28;20104;-35
2022/01/20 13:52:18;;;;;;;10.98;8.20;;;;;;;;;;5047029;28;20049;-37
2022/01/20 13:54:45;;;;;;;10.57;9.57;;;;;;;;;;5051119;28;20090;-39
2022/01/20 13:57:10;;;;;;;17.33;9.25;;;;;;;;;;5056044;28;20032;-43
2022/01/20 13:59:46;;;;;;;5.18;4.63;;;;;;;;;;5056194;28;20025;-39
2022/01/20 14:02:11;;;;;;;9.15;7.72;;;;;;;;;;5049729;28;20033;-39
2022/01/20 14:04:36;;;;;;;19.60;12.18;;;;;;;;;;5054875;28;20091;-38
2022/01/20 14:07:02;;;;;;;13.77;9.95;;;;;;;;;;5058440;28;20548;-41
2022/01/20 14:09:27;;;;;;;18.40;12.65;;;;;;;;;;5056606;28;20052;-39
2022/01/20 14:11:52;;;;;;;10.20;6.45;;;;;;;;;;5060827;28;20417;-39
2022/01/20 14:14:18;;;;;;;7.70;6.80;;;;;;;;;;5057400;28;20017;-41
2022/01/20 14:16:43;;;;;;;13.02;11.82;;;;;;;;;;5056416;28;20040;-40
2022/01/20 14:19:11;;;;;;;17.98;14.63;;;;;;;;;;5055995;28;20056;-39
2022/01/20 14:21:36;;;;;;;16.25;12.50;;;;;;;;;;5058526;28;20520;-41
2022/01/20 14:24:01;;;;;;;17.58;12.38;;;;;;;;;;5057444;28;20245;-38
2022/01/20 14:26:30;;;;;;;12.13;9.98;;;;;;;;;;5059450;28;20111;-39
2022/01/20 14:28:55;;;;;;;12.55;11.10;;;;;;;;;;5057972;28;20021;-38
2022/01/20 14:31:21;;;;;;;15.27;10.50;;;;;;;;;;5052264;28;20019;-38
2022/01/20 14:33:46;;;;;;;17.73;10.90;;;;;;;;;;5054607;28;20023;-38
2022/01/20 14:36:12;;;;;;;10.60;9.63;;;;;;;;;;5055555;28;20033;-41
2022/01/20 14:38:37;;;;;;;17.42;9.60;;;;;;;;;;5053557;28;20389;-42
2022/01/20 14:41:02;;;;;;;10.60;7.85;;;;;;;;;;5055683;28;20031;-37
2022/01/20 14:43:28;;;;;;;17.88;12.77;;;;;;;;;;5058072;28;20526;-43
2022/01/20 14:45:53;;;;;;;28.42;15.82;;;;;;;;;;5060677;28;20077;-38
2022/01/20 14:48:19;;;;;;;16.65;12.10;;;;;;;;;;5056407;28;20020;-37
2022/01/20 14:50:45;;;;;;;9.30;4.97;;;;;;;;;;5058789;28;20495;-39
2022/01/20 14:53:11;;;;;;;12.45;10.95;;;;;;;;;;5056163;28;20092;-41
2022/01/20 14:55:36;;;;;;;17.13;15.38;;;;;;;;;;5057014;28;20140;-39
2022/01/20 14:58:01;;;;;;;11.75;10.52;;;;;;;;;;5058620;28;20312;-39
2022/01/20 15:00:27;;;;;;;26.08;23.27;;;;;;;;;;5056526;28;20016;-39
2022/01/20 15:02:52;;;;;;;30.08;19.98;;;;;;;;;;5059980;28;20082;-39
2022/01/20 15:05:18;;;;;;;18.38;16.52;;;;;;;;;;5058332;28;20024;-40
2022/01/20 15:07:44;;;;;;;11.00;9.77;;;;;;;;;;5060434;28;20024;-40
2022/01/20 15:10:11;;;;;;;21.00;13.60;;;;;;;;;;5060033;28;20555;-38
2022/01/20 15:12:37;;;;;;;16.58;15.02;;;;;;;;;;5061343;28;20023;-38
2022/01/20 15:15:03;;;;;;;26.95;18.33;;;;;;;;;;5056685;28;20029;-40
2022/01/20 15:17:29;;;;;;;20.80;16.20;;;;;;;;;;5058665;28;20059;-40
2022/01/20 15:19:54;;;;;;;16.52;12.43;;;;;;;;;;5056168;28;20072;-41
2022/01/20 15:22:19;;;;;;;16.52;15.00;;;;;;;;;;5060271;28;20372;-38
2022/01/20 15:24:45;;;;;;;14.90;13.50;;;;;;;;;;5055815;28;20039;-39
2022/01/20 15:27:10;;;;;;;17.75;14.55;;;;;;;;;;5059607;28;20139;-40
2022/01/20 15:29:35;;;;;;;27.02;17.70;;;;;;;;;;5054112;28;20024;-41
2022/01/20 15:32:01;;;;;;;17.05;15.02;;;;;;;;;;5055620;28;20013;-39
2022/01/20 15:34:26;;;;;;;19.40;17.02;;;;;;;;;;5058036;28;20035;-38
2022/01/20 15:36:52;;;;;;;20.35;18.05;;;;;;;;;;5055273;28;20033;-38
2022/01/20 15:39:17;;;;;;;16.13;13.70;;;;;;;;;;5057901;28;20477;-38